Wetter & Webcam

Wetterdaten Diepholz (ETND)

METAR
METAR text: ETND 160520Z 09002KT 8000 M03/M03 Q1028 BLU+ Conditions at: ETND (DIEPHOLZ (GER-AF, DE) observed 0520 UTC 16 November 2018 Temperature: -3.0°C (27°F) Dewpoint: -3.0°C (27°F) [RH = 100%] Pressure (altimeter): 30.35 inches Hg (1028.0 mb) Winds: from the E (90 degrees) at 2 MPH (2 knots; 1.0 m/s) Visibility: 5 miles ( 8 km) Ceiling: unknown Clouds: missing Weather: no significant weather observed at this time Sunrise (SR) / Sunset (SS)
06:50 / 15:32 UTC

Wetterdaten Bremen (EDDW)

METAR
METAR text: EDDW 160520Z 11006KT 7000 NSC 02/02 Q1029 BECMG 3000 BR Conditions at: EDDW (BREMEN , DE) observed 0520 UTC 16 November 2018 Temperature: 2.0°C (36°F) Dewpoint: 2.0°C (36°F) [RH = 100%] Pressure (altimeter): 30.38 inches Hg (1029.0 mb) Winds: from the ESE (110 degrees) at 7 MPH (6 knots; 3.1 m/s) Visibility: 4 miles ( 7 km) Ceiling: at least 12,000 feet AGL Clouds: sky clear below 12,000 feet AGL Weather: no significant weather observed at this time Forecast for: EDDW (BREMEN , DE) Text: EDDW 160500Z 1606/1706 12005KT 8000 NSC Forecast period: 0600 to 0900 UTC 16 November 2018 Forecast type: FROM: standard forecast or significant change Winds: from the ESE (120 degrees) at 6 MPH (5 knots; 2.6 m/s) Visibility: 5 miles (8 km) Ceiling: unknown Clouds: missing Weather: no significant weather forecast for this period Text: TEMPO 1606/1609 3000 BR Forecast period: 0600 to 0900 UTC 16 November 2018 Forecast type: TEMPORARY: The following changes expected for less than half the time period Visibility: 1.86 miles (2.99 km) Ceiling: unknown Clouds: missing Weather: BR  (mist) Text: BECMG 1609/1611 10010KT Forecast period: 0900 UTC 16 November 2018 to 0600 UTC 17 November 2018 Forecast type: BECOMING: Conditions expected to become as follows by 1100 UTC 16 November 2018 Winds: from the E (100 degrees) at 12 MPH (10 knots; 5.1 m/s) Visibility: 5 miles (8 km) Ceiling: unknown Clouds: missing Weather: no significant weather forecast for this period

Copyright © 2017 Flugplatz Diepholz-Dümmerland

© 2017 Flugplatz Diepholz-Dümmerland